Time;durP1;ratioP1;P1;durP2;ratioP2;P2;SDS_P1;SDS_P2;PMS_P1;PMS_P2;Temp;Humidity;BMP_temperature;BMP_pressure;BME280_temperature;BME280_humidity;BME280_pressure;Samples;Min_cycle;Max_cycle;Signal;HPM_P1;HPM_P2
2022/10/01 00:01:03;;;;;;;0.60;0.60;;;10.70;99.90;;;;;;5073248;28;20089;-84
2022/10/01 00:03:30;;;;;;;0.50;0.50;;;10.70;99.90;;;;;;5072369;28;20040;-85
2022/10/01 00:06:11;;;;;;;0.68;0.68;;;10.70;99.90;;;;;;5060565;28;20040;-86
2022/10/01 00:08:39;;;;;;;0.70;0.70;;;10.80;99.90;;;;;;5068488;28;20060;-84
2022/10/01 00:11:17;;;;;;;0.40;0.40;;;10.60;99.90;;;;;;5073154;28;20529;-84
2022/10/01 00:13:44;;;;;;;0.47;0.47;;;10.60;99.90;;;;;;5076364;28;20669;-85
2022/10/01 00:16:17;;;;;;;0.70;0.70;;;10.60;99.90;;;;;;5085915;28;20052;-87
2022/10/01 00:18:45;;;;;;;0.75;0.75;;;10.60;99.90;;;;;;5063774;28;20113;-86
2022/10/01 00:21:20;;;;;;;0.40;0.40;;;10.60;99.90;;;;;;5074071;28;20062;-84
2022/10/01 00:23:46;;;;;;;0.60;0.60;;;10.60;99.90;;;;;;5072307;28;20078;-85
2022/10/01 00:26:35;;;;;;;0.50;0.50;;;10.60;99.90;;;;;;5074880;28;20389;-85
2022/10/01 00:29:13;;;;;;;1.98;1.40;;;10.70;99.90;;;;;;5074203;28;20481;-85
2022/10/01 00:31:39;;;;;;;0.63;0.63;;;10.60;99.90;;;;;;5072057;28;20078;-85
2022/10/01 00:34:05;;;;;;;0.55;0.55;;;10.70;99.90;;;;;;5042084;28;20079;-85
2022/10/01 00:36:32;;;;;;;0.65;0.65;;;10.60;99.90;;;;;;5061496;28;20036;-85
2022/10/01 00:38:59;;;;;;;0.75;0.75;;;10.60;99.90;;;;;;5080026;28;20113;-88
2022/10/01 00:41:26;;;;;;;0.60;0.60;;;10.60;99.90;;;;;;5058088;28;20515;-84
2022/10/01 00:43:57;;;;;;;0.32;0.32;;;10.60;99.90;;;;;;5058843;28;20386;-87
2022/10/01 00:46:37;;;;;;;0.60;0.60;;;10.60;99.90;;;;;;5075874;28;20059;-85
2022/10/01 00:49:15;;;;;;;1.58;1.48;;;10.60;99.90;;;;;;5080249;28;20066;-86
2022/10/01 00:51:48;;;;;;;0.50;0.50;;;10.60;99.90;;;;;;5084246;28;20036;-85
2022/10/01 00:54:19;;;;;;;0.68;0.63;;;10.60;99.90;;;;;;5079101;28;20320;-86
2022/10/01 00:56:45;;;;;;;0.38;0.38;;;10.60;99.90;;;;;;5079488;28;20048;-84
2022/10/01 00:59:15;;;;;;;0.80;0.80;;;10.60;99.90;;;;;;5078925;28;20493;-86
2022/10/01 01:01:40;;;;;;;0.43;0.43;;;10.60;99.90;;;;;;5078682;28;20374;-88
2022/10/01 01:04:18;;;;;;;0.55;0.55;;;10.60;99.90;;;;;;5068451;28;20044;-86
2022/10/01 01:06:56;;;;;;;0.57;0.57;;;10.60;99.90;;;;;;5047425;28;20048;-89
2022/10/01 01:09:30;;;;;;;0.85;0.80;;;10.60;99.90;;;;;;5081693;28;20105;-85
2022/10/01 01:12:26;;;;;;;1.05;0.95;;;10.60;99.90;;;;;;5076356;28;20036;-88
2022/10/01 01:15:18;;;;;;;2.95;1.50;;;10.60;99.90;;;;;;5086518;28;20036;-89
2022/10/01 01:17:53;;;;;;;0.50;0.50;;;10.60;99.90;;;;;;5061224;28;20036;-85
2022/10/01 01:20:42;;;;;;;0.50;0.50;;;10.60;99.90;;;;;;5065497;28;20040;-86
2022/10/01 01:23:14;;;;;;;2.05;1.95;;;10.50;99.90;;;;;;5081980;28;20127;-88
2022/10/01 01:26:05;;;;;;;0.55;0.55;;;10.60;99.90;;;;;;5068086;28;20413;-87
2022/10/01 01:28:46;;;;;;;0.63;0.63;;;10.60;99.90;;;;;;5078390;28;20039;-87
2022/10/01 01:31:15;;;;;;;0.30;0.30;;;10.50;99.90;;;;;;5091687;28;20040;-88
2022/10/01 01:33:44;;;;;;;0.77;0.77;;;10.50;99.90;;;;;;5068052;28;20040;-88
2022/10/01 01:36:17;;;;;;;0.57;0.57;;;10.50;99.90;;;;;;5082804;28;20158;-88
2022/10/01 01:38:48;;;;;;;0.55;0.55;;;10.50;99.90;;;;;;5065196;28;20033;-87
2022/10/01 01:41:15;;;;;;;1.30;1.20;;;10.40;99.90;;;;;;5084257;28;20633;-87
2022/10/01 01:43:46;;;;;;;0.60;0.60;;;10.40;99.90;;;;;;5082338;28;20048;-86
2022/10/01 01:46:19;;;;;;;0.55;0.55;;;10.60;99.90;;;;;;5066538;28;20050;-86
2022/10/01 01:48:48;;;;;;;0.50;0.50;;;10.50;99.90;;;;;;5083559;28;20163;-89
2022/10/01 01:51:22;;;;;;;0.45;0.45;;;10.50;99.90;;;;;;5084821;28;20459;-88
2022/10/01 01:53:52;;;;;;;0.50;0.50;;;10.50;99.90;;;;;;5094309;28;20042;-86
2022/10/01 01:56:18;;;;;;;0.55;0.55;;;10.50;99.90;;;;;;5096433;28;20044;-84
2022/10/01 01:58:45;;;;;;;1.33;1.33;;;10.50;99.90;;;;;;5048339;28;20048;-91
2022/10/01 02:01:39;;;;;;;0.77;0.77;;;10.40;99.90;;;;;;5068791;28;20032;-87
2022/10/01 02:04:36;;;;;;;0.60;0.60;;;10.40;99.90;;;;;;5084452;28;20048;-88
2022/10/01 02:07:29;;;;;;;1.05;1.05;;;10.40;99.90;;;;;;5064084;28;20044;-86
2022/10/01 02:10:21;;;;;;;0.43;0.43;;;10.40;99.90;;;;;;5065678;28;20033;-89
2022/10/01 02:13:07;;;;;;;1.50;1.40;;;10.40;99.90;;;;;;5083375;28;20098;-87
2022/10/01 02:15:50;;;;;;;0.82;0.70;;;10.40;99.90;;;;;;5082256;28;20051;-87
2022/10/01 02:18:27;;;;;;;0.70;0.70;;;10.40;99.90;;;;;;5085649;28;20044;-89
2022/10/01 02:21:01;;;;;;;0.50;0.50;;;10.30;99.90;;;;;;5083515;28;20040;-89
2022/10/01 02:23:39;;;;;;;1.05;1.05;;;10.40;99.90;;;;;;5080159;28;20058;-90
2022/10/01 02:26:15;;;;;;;1.15;1.15;;;10.50;99.90;;;;;;5082295;28;20040;-88
2022/10/01 02:28:52;;;;;;;1.15;1.15;;;10.50;99.90;;;;;;5082810;28;20050;-90
2022/10/01 02:31:24;;;;;;;0.40;0.40;;;10.40;99.90;;;;;;5089205;28;20062;-89
2022/10/01 02:33:51;;;;;;;;;;;10.40;99.90;;;;;;5064129;28;20043;-88
2022/10/01 02:36:20;;;;;;;0.50;0.50;;;10.40;99.90;;;;;;5064292;28;19924;-86
2022/10/01 02:38:49;;;;;;;0.65;0.60;;;10.50;99.90;;;;;;5085377;28;20044;-88
2022/10/01 02:41:22;;;;;;;0.70;0.70;;;10.50;99.90;;;;;;5085364;28;20058;-89
2022/10/01 02:43:56;;;;;;;0.50;0.50;;;10.50;99.90;;;;;;5082393;28;21284;-88
2022/10/01 02:46:35;;;;;;;0.40;0.40;;;10.50;99.90;;;;;;5078780;28;20509;-87
2022/10/01 02:49:01;;;;;;;0.60;0.60;;;10.40;99.90;;;;;;5091236;28;20122;-88
2022/10/01 02:51:50;;;;;;;0.50;0.50;;;10.40;99.90;;;;;;5094037;28;20043;-90
2022/10/01 02:54:26;;;;;;;0.45;0.45;;;10.50;99.90;;;;;;5082800;28;20050;-90
2022/10/01 02:59:36;;;;;;;1.55;1.45;;;10.50;99.90;;;;;;5068761;28;20052;-86
2022/10/01 03:02:02;;;;;;;0.52;0.52;;;10.50;99.90;;;;;;5083350;28;20366;-87
2022/10/01 03:04:28;;;;;;;;;;;10.50;99.90;;;;;;5084101;28;20064;-85
2022/10/01 03:06:54;;;;;;;0.50;0.50;;;10.50;99.90;;;;;;5080286;28;19924;-86
2022/10/01 03:09:19;;;;;;;0.75;0.75;;;10.50;99.90;;;;;;5066068;28;20115;-86
2022/10/01 03:11:46;;;;;;;0.50;0.50;;;10.50;99.90;;;;;;5070855;28;20040;-87
2022/10/01 03:14:11;;;;;;;0.82;0.82;;;10.50;99.90;;;;;;5082068;28;20048;-86
2022/10/01 03:16:37;;;;;;;0.60;0.60;;;11.00;99.90;;;;;;5075816;28;20789;-86
2022/10/01 03:19:03;;;;;;;0.40;0.40;;;10.50;99.90;;;;;;5063333;28;20040;-88
2022/10/01 03:21:29;;;;;;;1.33;1.23;;;10.50;99.90;;;;;;5077412;28;20047;-87
2022/10/01 03:23:54;;;;;;;0.55;0.55;;;10.60;99.90;;;;;;5060909;28;20123;-85
2022/10/01 03:26:20;;;;;;;0.43;0.43;;;10.50;99.90;;;;;;5073626;28;20040;-86
2022/10/01 03:28:46;;;;;;;0.50;0.50;;;10.60;99.90;;;;;;5060748;28;20047;-85
2022/10/01 03:31:11;;;;;;;0.50;0.50;;;10.60;99.90;;;;;;5073076;28;20036;-84
2022/10/01 03:33:37;;;;;;;0.40;0.40;;;10.60;99.90;;;;;;5042948;28;20044;-82
2022/10/01 03:36:03;;;;;;;0.50;0.50;;;10.70;99.90;;;;;;5070401;28;20040;-84
2022/10/01 03:38:30;;;;;;;0.65;0.65;;;10.70;99.90;;;;;;5071795;28;20081;-83
2022/10/01 03:40:56;;;;;;;0.50;0.50;;;10.70;99.90;;;;;;5083980;28;20413;-84
2022/10/01 03:43:21;;;;;;;0.50;0.50;;;10.70;99.90;;;;;;5087885;28;20040;-85
2022/10/01 03:45:47;;;;;;;0.40;0.40;;;10.70;99.90;;;;;;5080047;28;20078;-85
2022/10/01 03:48:13;;;;;;;0.47;0.47;;;10.80;99.90;;;;;;5068030;28;20044;-83
2022/10/01 03:50:39;;;;;;;0.50;0.50;;;10.80;99.90;;;;;;5085962;28;20532;-85
2022/10/01 03:53:05;;;;;;;0.68;0.68;;;10.80;99.90;;;;;;5066401;28;20044;-82
2022/10/01 03:55:31;;;;;;;0.40;0.40;;;10.80;99.90;;;;;;5061334;28;20075;-84
2022/10/01 03:57:57;;;;;;;0.45;0.45;;;10.80;99.90;;;;;;5081729;28;20055;-84
2022/10/01 04:00:24;;;;;;;0.60;0.60;;;10.90;99.90;;;;;;5045728;28;20392;-84
2022/10/01 04:02:50;;;;;;;0.40;0.40;;;10.90;99.90;;;;;;5050540;28;20033;-84
2022/10/01 04:05:15;;;;;;;0.40;0.40;;;10.90;99.90;;;;;;5077825;28;20044;-84
2022/10/01 04:07:45;;;;;;;0.63;0.63;;;10.90;99.90;;;;;;5079493;28;20032;-83
2022/10/01 04:10:10;;;;;;;0.57;0.57;;;11.00;99.90;;;;;;5032790;28;20048;-84
2022/10/01 04:12:36;;;;;;;0.28;0.28;;;10.90;99.90;;;;;;5080820;28;20505;-83
2022/10/01 04:15:02;;;;;;;0.80;0.80;;;10.90;99.90;;;;;;5083144;28;20047;-84
2022/10/01 04:17:28;;;;;;;0.50;0.50;;;10.90;99.90;;;;;;5085608;28;20155;-85
2022/10/01 04:19:56;;;;;;;0.30;0.30;;;10.90;99.90;;;;;;5087417;28;20040;-85
2022/10/01 04:22:22;;;;;;;0.30;0.30;;;10.90;99.90;;;;;;5086908;28;20507;-85
2022/10/01 04:24:47;;;;;;;1.08;0.75;;;10.90;99.90;;;;;;5088148;28;20090;-83
2022/10/01 04:27:14;;;;;;;0.40;0.40;;;10.90;99.90;;;;;;5083867;28;20047;-85
2022/10/01 04:29:39;;;;;;;0.40;0.40;;;10.90;99.90;;;;;;5074773;28;20377;-85
2022/10/01 04:32:08;;;;;;;0.32;0.32;;;10.90;99.90;;;;;;5080012;28;20072;-85
2022/10/01 04:34:52;;;;;;;0.40;0.40;;;11.00;99.90;;;;;;5076748;28;20113;-85
2022/10/01 04:37:21;;;;;;;0.40;0.40;;;11.00;99.90;;;;;;5090294;28;20043;-84
2022/10/01 04:39:47;;;;;;;0.40;0.40;;;11.00;99.90;;;;;;5066099;28;20596;-84
2022/10/01 04:42:13;;;;;;;0.57;0.57;;;11.00;99.90;;;;;;5064484;28;20098;-83
2022/10/01 04:44:39;;;;;;;0.40;0.40;;;11.00;99.90;;;;;;5088106;28;20131;-84
2022/10/01 04:47:05;;;;;;;0.45;0.45;;;11.00;99.90;;;;;;5071020;28;20036;-83
2022/10/01 04:49:32;;;;;;;0.50;0.50;;;11.00;99.90;;;;;;5073829;28;20032;-84
2022/10/01 04:52:01;;;;;;;0.30;0.30;;;11.00;99.90;;;;;;5092382;28;20079;-84
2022/10/01 04:54:27;;;;;;;0.50;0.50;;;11.00;99.90;;;;;;5070120;28;20051;-85
2022/10/01 04:56:54;;;;;;;0.50;0.50;;;11.10;99.90;;;;;;5076139;28;20040;-85
2022/10/01 04:59:19;;;;;;;0.47;0.47;;;11.10;99.90;;;;;;5071238;28;20036;-84
2022/10/01 05:01:48;;;;;;;0.40;0.40;;;11.10;99.90;;;;;;5090919;28;20130;-84
2022/10/01 05:04:14;;;;;;;0.40;0.40;;;11.10;99.90;;;;;;5093236;28;20075;-85
2022/10/01 05:06:40;;;;;;;1.17;0.45;;;11.10;99.90;;;;;;5068108;28;20039;-83
2022/10/01 05:09:06;;;;;;;0.40;0.40;;;11.10;99.90;;;;;;5072792;28;20047;-86
2022/10/01 05:11:33;;;;;;;0.40;0.40;;;11.20;99.90;;;;;;5086822;28;20046;-84
2022/10/01 05:13:59;;;;;;;0.50;0.50;;;11.20;99.90;;;;;;5091646;28;20044;-85
2022/10/01 05:16:25;;;;;;;0.75;0.75;;;11.20;99.90;;;;;;5068089;28;20076;-84
2022/10/01 05:18:51;;;;;;;0.30;0.30;;;11.20;99.90;;;;;;5076292;28;20070;-85
2022/10/01 05:21:18;;;;;;;0.68;0.68;;;11.20;99.90;;;;;;5088111;28;20056;-85
2022/10/01 05:23:43;;;;;;;0.40;0.40;;;11.20;99.90;;;;;;5063026;28;20040;-84
2022/10/01 05:26:09;;;;;;;0.98;0.98;;;11.20;99.90;;;;;;5096842;28;20058;-83
2022/10/01 05:28:35;;;;;;;0.40;0.40;;;11.30;99.90;;;;;;5071999;28;20583;-83
2022/10/01 05:31:02;;;;;;;;;;;11.30;99.90;;;;;;5090267;28;20375;-82
2022/10/01 05:33:29;;;;;;;0.40;0.40;;;11.30;99.90;;;;;;5080622;28;19963;-84
2022/10/01 05:35:56;;;;;;;0.40;0.40;;;11.30;99.90;;;;;;5074234;28;20058;-83
2022/10/01 05:38:21;;;;;;;0.57;0.57;;;11.30;99.90;;;;;;5089384;28;20048;-82
2022/10/01 05:40:48;;;;;;;0.50;0.50;;;11.30;99.90;;;;;;5093712;28;20055;-83
2022/10/01 05:43:14;;;;;;;0.65;0.65;;;11.30;99.90;;;;;;5091538;28;20107;-83
2022/10/01 05:45:40;;;;;;;0.40;0.40;;;11.30;99.90;;;;;;5085720;28;20088;-83
2022/10/01 05:48:06;;;;;;;;;;;11.30;99.90;;;;;;5069444;28;20063;-84
2022/10/01 05:50:41;;;;;;;0.50;0.50;;;11.30;99.90;;;;;;5092157;28;19945;-83
2022/10/01 05:53:08;;;;;;;0.30;0.30;;;11.40;99.90;;;;;;5090869;28;20036;-83
2022/10/01 05:55:34;;;;;;;0.40;0.40;;;11.40;99.90;;;;;;5085145;28;20126;-83
2022/10/01 05:58:05;;;;;;;0.57;0.57;;;11.40;99.90;;;;;;5090626;28;20119;-83
2022/10/01 06:00:38;;;;;;;0.60;0.60;;;11.40;99.90;;;;;;5077096;28;20138;-84
2022/10/01 06:03:07;;;;;;;0.68;0.68;;;11.50;99.90;;;;;;5091907;28;20040;-84
2022/10/01 06:05:35;;;;;;;0.50;0.50;;;11.50;99.90;;;;;;5092537;28;20043;-87
2022/10/01 06:08:03;;;;;;;0.30;0.30;;;11.50;99.90;;;;;;5053804;28;20079;-84
2022/10/01 06:10:29;;;;;;;0.50;0.50;;;11.50;99.90;;;;;;5089745;28;20115;-82
2022/10/01 06:13:01;;;;;;;0.40;0.40;;;11.50;99.90;;;;;;5056165;28;20115;-85
2022/10/01 06:15:28;;;;;;;0.60;0.60;;;11.60;99.90;;;;;;5051225;28;20539;-82
2022/10/01 06:17:54;;;;;;;0.38;0.38;;;11.60;99.90;;;;;;5083542;28;20044;-83
2022/10/01 06:20:20;;;;;;;0.55;0.55;;;11.70;99.90;;;;;;5068916;28;20071;-83
2022/10/01 06:22:54;;;;;;;0.40;0.40;;;11.70;99.90;;;;;;5065272;28;20037;-82
2022/10/01 06:25:20;;;;;;;0.40;0.40;;;11.80;99.90;;;;;;5076491;28;20064;-82
2022/10/01 06:27:54;;;;;;;0.52;0.50;;;11.90;99.90;;;;;;5091321;28;20115;-83
2022/10/01 06:30:21;;;;;;;0.30;0.30;;;11.80;99.90;;;;;;5081515;28;20081;-82
2022/10/01 06:32:47;;;;;;;0.30;0.30;;;11.80;99.90;;;;;;5058522;28;20460;-83
2022/10/01 06:35:13;;;;;;;0.75;0.75;;;11.70;99.90;;;;;;5088370;28;20040;-85
2022/10/01 06:37:39;;;;;;;0.40;0.40;;;11.70;99.90;;;;;;5090061;28;20032;-84
2022/10/01 06:40:06;;;;;;;0.52;0.52;;;11.70;99.90;;;;;;5068503;28;20512;-85
2022/10/01 06:42:32;;;;;;;0.57;0.57;;;11.80;99.90;;;;;;5067983;28;20040;-85
2022/10/01 06:44:57;;;;;;;0.40;0.40;;;11.80;99.90;;;;;;5084861;28;20366;-86
2022/10/01 06:47:23;;;;;;;0.68;0.68;;;11.80;99.90;;;;;;5079154;28;20079;-85
2022/10/01 06:49:50;;;;;;;0.50;0.50;;;11.80;99.90;;;;;;5086202;28;20051;-86
2022/10/01 06:55:00;;;;;;;0.60;0.60;;;11.80;99.90;;;;;;5072530;28;20067;-86
2022/10/01 06:57:26;;;;;;;1.48;1.38;;;11.80;99.90;;;;;;5066834;28;20040;-86
2022/10/01 06:59:52;;;;;;;0.43;0.43;;;11.90;99.90;;;;;;5082486;28;20078;-87
2022/10/01 07:02:26;;;;;;;0.55;0.55;;;12.00;99.90;;;;;;5082412;28;20117;-84
2022/10/01 07:04:52;;;;;;;0.30;0.30;;;12.00;99.90;;;;;;5088667;28;20081;-86
2022/10/01 07:07:18;;;;;;;0.40;0.40;;;12.10;99.90;;;;;;5058195;28;20032;-86
2022/10/01 07:09:44;;;;;;;0.40;0.40;;;12.20;99.90;;;;;;5087195;28;20032;-87
2022/10/01 07:12:10;;;;;;;0.40;0.40;;;12.30;99.90;;;;;;5065271;28;20035;-85
2022/10/01 07:14:35;;;;;;;0.75;0.75;;;12.30;99.90;;;;;;5038176;28;20078;-86
2022/10/01 07:17:01;;;;;;;0.50;0.50;;;;;;;;;;5051441;28;20048;-86
2022/10/01 07:19:30;;;;;;;0.30;0.30;;;12.50;99.90;;;;;;5088897;28;20048;-83
2022/10/01 07:21:56;;;;;;;0.50;0.50;;;12.60;99.90;;;;;;5087035;28;20046;-84
2022/10/01 07:24:22;;;;;;;0.40;0.40;;;12.60;99.90;;;;;;5060633;28;20048;-83
2022/10/01 07:26:49;;;;;;;0.60;0.60;;;12.60;99.90;;;;;;5050660;28;20041;-84
2022/10/01 07:29:15;;;;;;;0.40;0.40;;;12.60;99.90;;;;;;5083888;28;20051;-83
2022/10/01 07:31:41;;;;;;;1.45;1.13;;;12.60;99.90;;;;;;5079648;28;20047;-84
2022/10/01 07:34:07;;;;;;;0.60;0.60;;;12.60;99.90;;;;;;5066777;28;20413;-85
2022/10/01 07:36:32;;;;;;;0.63;0.63;;;12.60;99.90;;;;;;5086337;28;20052;-84
2022/10/01 07:38:59;;;;;;;0.60;0.60;;;12.70;99.90;;;;;;5070175;28;20051;-84
2022/10/01 07:41:25;;;;;;;0.93;0.88;;;12.60;99.90;;;;;;5080372;28;20119;-85
2022/10/01 07:43:50;;;;;;;0.73;0.73;;;12.60;99.90;;;;;;5078042;28;20131;-84
2022/10/01 07:46:16;;;;;;;0.40;0.40;;;12.50;99.90;;;;;;5062908;28;20488;-84
2022/10/01 07:48:45;;;;;;;0.60;0.60;;;12.60;99.90;;;;;;5096047;28;20078;-86
2022/10/01 07:51:11;;;;;;;0.88;0.85;;;12.70;99.90;;;;;;5096618;28;20050;-89
2022/10/01 07:53:36;;;;;;;0.88;0.85;;;12.80;99.90;;;;;;5076624;28;20040;-85
2022/10/01 07:56:02;;;;;;;0.47;0.47;;;12.90;99.90;;;;;;5054103;28;20073;-86
2022/10/01 07:58:29;;;;;;;0.30;0.30;;;13.00;99.90;;;;;;5081712;28;20044;-85
2022/10/01 08:00:57;;;;;;;0.40;0.40;;;13.10;99.90;;;;;;5073057;28;20432;-89
2022/10/01 08:03:26;;;;;;;0.40;0.40;;;13.20;99.90;;;;;;5090687;28;20079;-89
2022/10/01 08:05:55;;;;;;;0.60;0.60;;;13.30;99.90;;;;;;5056136;28;20503;-87
2022/10/01 08:08:22;;;;;;;0.20;0.20;;;13.40;99.90;;;;;;5079527;28;20043;-90
2022/10/01 08:10:49;;;;;;;0.20;0.20;;;13.50;99.90;;;;;;5084453;28;20067;-87
2022/10/01 08:13:16;;;;;;;0.22;0.22;;;13.60;99.90;;;;;;5075872;28;20110;-85
2022/10/01 08:15:49;;;;;;;0.30;0.30;;;13.70;99.90;;;;;;5076493;28;20107;-86
2022/10/01 08:18:15;;;;;;;1.60;1.50;;;13.80;99.90;;;;;;5079543;28;20051;-86
2022/10/01 08:20:40;;;;;;;1.02;1.00;;;13.80;99.90;;;;;;5086025;28;20036;-86
2022/10/01 08:23:09;;;;;;;0.20;0.20;;;13.90;99.90;;;;;;5058056;28;20131;-87
2022/10/01 08:25:36;;;;;;;0.43;0.43;;;14.10;99.90;;;;;;5082665;28;20119;-87
2022/10/01 08:28:03;;;;;;;0.30;0.30;;;14.10;99.90;;;;;;5095764;28;20032;-86
2022/10/01 08:30:29;;;;;;;0.22;0.22;;;14.20;99.90;;;;;;5079678;28;20037;-87
2022/10/01 08:32:56;;;;;;;0.30;0.30;;;14.20;99.90;;;;;;5070617;28;20040;-85
2022/10/01 08:35:23;;;;;;;0.30;0.30;;;14.40;99.90;;;;;;5066576;28;20075;-89
2022/10/01 08:37:48;;;;;;;0.30;0.30;;;14.40;99.90;;;;;;5068918;28;20079;-87
2022/10/01 08:40:15;;;;;;;0.90;0.90;;;14.50;99.90;;;;;;5075490;28;20040;-86
2022/10/01 08:42:50;;;;;;;0.20;0.20;;;14.60;99.90;;;;;;5083543;28;20086;-87
2022/10/01 08:45:24;;;;;;;0.20;0.20;;;14.70;99.90;;;;;;5083230;28;20055;-87
2022/10/01 08:48:25;;;;;;;0.30;0.30;;;14.90;99.90;;;;;;5080255;28;20036;-88
2022/10/01 08:50:56;;;;;;;0.85;0.85;;;15.10;99.90;;;;;;5082518;28;20068;-85
2022/10/01 08:53:40;;;;;;;0.28;0.28;;;15.20;99.90;;;;;;5061756;28;20038;-86
2022/10/01 08:56:12;;;;;;;0.43;0.43;;;15.30;99.90;;;;;;5082373;28;20097;-86
2022/10/01 08:58:44;;;;;;;0.40;0.40;;;15.50;99.90;;;;;;5066852;28;20063;-86
2022/10/01 09:01:10;;;;;;;0.60;0.60;;;15.70;99.90;;;;;;5088266;28;20070;-86
2022/10/01 09:03:37;;;;;;;0.32;0.32;;;15.80;99.90;;;;;;5086868;28;20075;-86
2022/10/01 09:06:19;;;;;;;1.73;1.33;;;15.90;99.90;;;;;;5082543;28;20054;-85
2022/10/01 09:08:54;;;;;;;0.40;0.40;;;15.90;99.90;;;;;;5085415;28;20044;-87
2022/10/01 09:11:41;;;;;;;0.20;0.20;;;15.90;99.90;;;;;;5086642;28;20142;-87
2022/10/01 09:14:45;;;;;;;0.20;0.20;;;15.80;99.90;;;;;;5061959;28;20048;-87
2022/10/01 09:17:46;;;;;;;0.20;0.20;;;15.80;99.90;;;;;;5081347;28;20048;-86
2022/10/01 09:20:35;;;;;;;0.20;0.20;;;15.90;99.90;;;;;;5035225;28;20609;-86
2022/10/01 09:23:30;;;;;;;0.30;0.30;;;15.80;99.90;;;;;;5067915;28;20154;-86
2022/10/01 09:25:58;;;;;;;0.30;0.30;;;15.70;99.90;;;;;;5064406;28;20386;-89
2022/10/01 09:28:33;;;;;;;0.17;0.17;;;15.70;99.90;;;;;;5083831;28;20078;-86
2022/10/01 09:31:10;;;;;;;1.20;0.82;;;15.80;99.90;;;;;;5092818;28;20131;-86
2022/10/01 09:34:05;;;;;;;0.73;0.73;;;15.90;99.90;;;;;;5088356;28;20051;-87
2022/10/01 09:36:42;;;;;;;0.20;0.20;;;16.00;99.90;;;;;;5065879;28;20405;-86
2022/10/01 09:39:20;;;;;;;0.45;0.45;;;15.90;99.90;;;;;;5088743;28;20485;-87
2022/10/01 09:41:47;;;;;;;0.40;0.40;;;15.90;99.90;;;;;;5087095;28;20043;-86
2022/10/01 09:44:21;;;;;;;0.40;0.40;;;16.00;99.90;;;;;;5084948;28;20074;-88
2022/10/01 09:46:47;;;;;;;0.60;0.60;;;16.00;99.90;;;;;;5090233;28;20043;-87
2022/10/01 09:49:19;;;;;;;0.32;0.32;;;16.10;99.90;;;;;;5077228;28;20397;-89
2022/10/01 09:51:48;;;;;;;0.28;0.28;;;16.20;99.90;;;;;;5089457;28;20039;-86
2022/10/01 09:54:28;;;;;;;0.52;0.52;;;16.30;99.90;;;;;;5072527;28;20048;-85
2022/10/01 09:57:07;;;;;;;0.30;0.30;;;16.30;99.90;;;;;;5092818;28;20048;-86
2022/10/01 09:59:48;;;;;;;0.38;0.38;;;16.00;99.90;;;;;;5076797;28;20135;-84
2022/10/01 10:02:24;;;;;;;3.13;1.70;;;15.60;99.90;;;;;;5079993;28;20071;-86
2022/10/01 10:05:06;;;;;;;0.35;0.35;;;14.90;99.90;;;;;;5069293;28;20480;-84
2022/10/01 10:07:33;;;;;;;3.50;1.05;;;14.30;99.90;;;;;;5084236;28;20043;-84
2022/10/01 10:10:19;;;;;;;0.40;0.40;;;13.80;99.90;;;;;;5084139;28;20493;-84
2022/10/01 10:12:45;;;;;;;0.30;0.30;;;13.50;99.90;;;;;;5059287;28;20504;-84
2022/10/01 10:15:19;;;;;;;0.20;0.20;;;13.30;99.90;;;;;;5083428;28;20051;-86
2022/10/01 10:17:49;;;;;;;0.30;0.30;;;13.30;99.90;;;;;;5088882;28;20055;-85
2022/10/01 10:20:38;;;;;;;0.50;0.50;;;13.20;99.90;;;;;;5086022;28;20052;-88
2022/10/01 10:23:19;;;;;;;0.30;0.30;;;13.20;99.90;;;;;;5090573;28;20048;-87
2022/10/01 10:26:06;;;;;;;0.50;0.50;;;13.10;99.90;;;;;;5088186;28;20048;-89
2022/10/01 10:28:44;;;;;;;0.30;0.30;;;12.80;99.90;;;;;;5087110;28;20040;-88
2022/10/01 10:31:19;;;;;;;0.30;0.30;;;12.60;99.90;;;;;;5084924;28;20032;-85
2022/10/01 10:34:16;;;;;;;0.30;0.30;;;12.40;99.90;;;;;;5089686;28;20036;-85
2022/10/01 10:36:43;;;;;;;0.40;0.40;;;12.40;99.90;;;;;;5071364;28;20043;-85
2022/10/01 10:39:26;;;;;;;0.40;0.40;;;12.30;99.90;;;;;;5086902;28;20043;-86
2022/10/01 10:41:53;;;;;;;0.32;0.32;;;12.20;99.90;;;;;;5079010;28;20082;-83
2022/10/01 10:44:21;;;;;;;0.57;0.57;;;12.20;99.90;;;;;;5076071;28;20120;-86
2022/10/01 10:46:48;;;;;;;0.30;0.30;;;12.10;99.90;;;;;;5074136;28;20036;-86
2022/10/01 10:49:25;;;;;;;0.32;0.32;;;12.10;99.90;;;;;;5072138;28;20032;-87
2022/10/01 10:51:53;;;;;;;0.32;0.32;;;12.00;99.90;;;;;;5092086;28;20051;-86
2022/10/01 10:54:20;;;;;;;0.22;0.22;;;12.00;99.90;;;;;;5089690;28;20511;-86
2022/10/01 10:57:23;;;;;;;0.40;0.40;;;12.10;99.90;;;;;;5060986;28;20044;-85
2022/10/01 11:00:22;;;;;;;0.50;0.50;;;12.10;99.90;;;;;;5057343;28;20060;-85
2022/10/01 11:03:03;;;;;;;0.32;0.32;;;12.30;99.90;;;;;;5058358;28;20056;-92
2022/10/01 11:05:39;;;;;;;0.38;0.38;;;12.40;99.90;;;;;;5059079;28;20040;-88
2022/10/01 11:08:10;;;;;;;0.30;0.30;;;12.50;99.90;;;;;;5057894;28;20036;-89
2022/10/01 11:10:41;;;;;;;0.30;0.30;;;12.70;99.90;;;;;;5073928;28;20113;-88
2022/10/01 11:13:34;;;;;;;0.35;0.35;;;12.70;99.90;;;;;;5063926;28;20043;-89
2022/10/01 11:16:03;;;;;;;0.38;0.38;;;12.70;99.90;;;;;;5092200;28;20429;-88
2022/10/01 11:19:01;;;;;;;0.40;0.40;;;12.70;99.90;;;;;;5076290;28;20072;-89
2022/10/01 11:21:46;;;;;;;0.30;0.30;;;12.70;99.90;;;;;;5067679;28;20493;-86
2022/10/01 11:24:22;;;;;;;0.28;0.28;;;12.80;99.90;;;;;;5073321;28;20490;-87
2022/10/01 11:26:51;;;;;;;0.25;0.25;;;12.80;99.90;;;;;;5073221;28;20089;-86
2022/10/01 11:29:33;;;;;;;0.40;0.40;;;12.90;99.90;;;;;;5070061;28;20037;-86
2022/10/01 11:32:20;;;;;;;0.32;0.32;;;12.90;99.90;;;;;;5092239;28;20058;-86
2022/10/01 11:35:11;;;;;;;0.30;0.30;;;13.10;99.90;;;;;;5085010;28;20123;-86
2022/10/01 11:37:42;;;;;;;0.60;0.60;;;13.20;99.90;;;;;;5089114;28;20488;-87
2022/10/01 11:40:23;;;;;;;0.30;0.30;;;13.30;99.90;;;;;;5066785;28;20054;-85
2022/10/01 11:42:53;;;;;;;0.20;0.20;;;13.50;99.90;;;;;;5068597;28;20190;-86
2022/10/01 11:45:25;;;;;;;0.40;0.40;;;13.60;99.90;;;;;;5085398;28;20473;-86
2022/10/01 11:48:06;;;;;;;0.65;0.65;;;13.70;99.90;;;;;;5080746;28;20449;-85
2022/10/01 11:50:41;;;;;;;0.40;0.40;;;13.80;99.90;;;;;;5088740;28;20040;-85
2022/10/01 11:53:32;;;;;;;1.67;0.93;;;13.90;99.90;;;;;;5091212;28;20177;-85
2022/10/01 11:59:48;;;;;;;0.30;0.30;;;14.30;99.90;;;;;;5094340;28;20050;-83
2022/10/01 12:02:33;;;;;;;0.80;0.35;;;14.40;99.90;;;;;;5085309;28;20075;-84
2022/10/01 12:05:17;;;;;;;0.30;0.30;;;14.40;99.90;;;;;;5062013;28;20401;-87
2022/10/01 12:07:52;;;;;;;0.30;0.30;;;14.50;99.90;;;;;;5073080;28;20481;-87
2022/10/01 12:10:40;;;;;;;0.20;0.20;;;14.60;99.90;;;;;;5087685;28;20113;-88
2022/10/01 12:13:21;;;;;;;0.40;0.40;;;14.70;99.90;;;;;;5057519;28;20078;-86
2022/10/01 12:16:11;;;;;;;0.20;0.20;;;14.80;99.90;;;;;;5089280;28;20127;-87
2022/10/01 12:18:50;;;;;;;0.20;0.20;;;14.90;99.90;;;;;;5069506;28;20059;-88
2022/10/01 12:21:24;;;;;;;0.30;0.30;;;14.90;99.90;;;;;;5082121;28;20048;-86
2022/10/01 12:24:11;;;;;;;0.25;0.25;;;15.00;99.90;;;;;;5094102;28;20130;-85
2022/10/01 12:27:05;;;;;;;0.28;0.28;;;15.10;99.90;;;;;;5100550;28;20044;-89
2022/10/01 12:29:39;;;;;;;0.50;0.50;;;15.30;99.90;;;;;;5068032;28;20087;-88
2022/10/01 12:32:24;;;;;;;0.30;0.30;;;15.50;99.90;;;;;;5078829;28;20382;-85
2022/10/01 12:35:09;;;;;;;0.30;0.30;;;15.80;99.90;;;;;;5093908;28;20033;-85
2022/10/01 12:38:07;;;;;;;0.32;0.32;;;15.90;99.90;;;;;;5077671;28;20358;-85
2022/10/01 12:40:51;;;;;;;0.63;0.63;;;15.90;99.90;;;;;;5096044;28;20061;-89
2022/10/01 12:43:36;;;;;;;0.28;0.28;;;16.00;99.90;;;;;;5082445;28;20041;-88
2022/10/01 12:46:13;;;;;;;0.28;0.28;;;15.90;99.90;;;;;;5062561;28;20044;-86
2022/10/01 12:48:56;;;;;;;0.20;0.20;;;15.90;99.90;;;;;;5076383;28;20040;-89
2022/10/01 12:52:06;;;;;;;0.30;0.30;;;15.90;99.90;;;;;;5092454;28;20040;-87
2022/10/01 12:54:56;;;;;;;0.45;0.45;;;16.20;99.90;;;;;;5099474;28;20099;-89
2022/10/01 12:57:48;;;;;;;0.25;0.25;;;16.30;99.90;;;;;;5071638;28;20040;-85
2022/10/01 13:00:23;;;;;;;0.70;0.70;;;16.10;99.90;;;;;;5089782;28;20054;-87
2022/10/01 13:03:02;;;;;;;0.30;0.30;;;15.80;99.90;;;;;;5094230;28;20063;-87
2022/10/01 13:05:55;;;;;;;0.20;0.20;;;15.50;99.90;;;;;;5085630;28;20040;-85
2022/10/01 13:08:56;;;;;;;0.35;0.35;;;15.30;99.90;;;;;;5089876;28;20370;-87
2022/10/01 13:11:29;;;;;;;0.25;0.25;;;15.10;99.90;;;;;;5074935;28;20118;-88
2022/10/01 13:13:56;;;;;;;0.20;0.20;;;14.90;99.90;;;;;;5091241;28;20043;-87
2022/10/01 13:16:48;;;;;;;0.30;0.30;;;14.70;99.90;;;;;;5076941;28;20039;-90
2022/10/01 13:19:29;;;;;;;0.47;0.47;;;14.60;99.90;;;;;;5095532;28;20382;-87
2022/10/01 13:21:58;;;;;;;0.30;0.30;;;14.50;99.90;;;;;;5094801;28;20075;-88
2022/10/01 13:24:54;;;;;;;0.40;0.40;;;14.50;99.90;;;;;;5088191;28;20045;-87
2022/10/01 13:27:47;;;;;;;0.40;0.40;;;14.50;99.90;;;;;;5102268;28;20052;-85